sensor_id;sensor_type;location;lat;lon;timestamp;P1;durP1;ratioP1;P2;durP2;ratioP2
4290;SDS011;2159;50.906;7.152;2022-09-13T00:02:24;6.90;;;3.80;;
4290;SDS011;2159;50.906;7.152;2022-09-13T00:04:53;4.57;;;4.17;;
4290;SDS011;2159;50.906;7.152;2022-09-13T00:07:21;5.60;;;4.03;;
4290;SDS011;2159;50.906;7.152;2022-09-13T00:09:48;4.73;;;4.00;;
4290;SDS011;2159;50.906;7.152;2022-09-13T00:12:16;6.73;;;4.07;;
4290;SDS011;2159;50.906;7.152;2022-09-13T00:14:43;5.13;;;4.10;;
4290;SDS011;2159;50.906;7.152;2022-09-13T00:17:11;6.00;;;3.90;;
4290;SDS011;2159;50.906;7.152;2022-09-13T00:19:38;8.77;;;3.93;;
4290;SDS011;2159;50.906;7.152;2022-09-13T00:22:07;6.63;;;3.80;;
4290;SDS011;2159;50.906;7.152;2022-09-13T00:24:34;4.20;;;3.80;;
4290;SDS011;2159;50.906;7.152;2022-09-13T00:27:02;6.17;;;4.23;;
4290;SDS011;2159;50.906;7.152;2022-09-13T00:29:30;3.83;;;3.53;;
4290;SDS011;2159;50.906;7.152;2022-09-13T00:31:57;4.33;;;3.90;;
4290;SDS011;2159;50.906;7.152;2022-09-13T00:34:25;4.90;;;4.43;;
4290;SDS011;2159;50.906;7.152;2022-09-13T00:36:52;3.90;;;3.60;;
4290;SDS011;2159;50.906;7.152;2022-09-13T00:39:21;4.47;;;4.07;;
4290;SDS011;2159;50.906;7.152;2022-09-13T00:41:48;5.20;;;4.03;;
4290;SDS011;2159;50.906;7.152;2022-09-13T00:47:02;4.97;;;4.47;;
4290;SDS011;2159;50.906;7.152;2022-09-13T00:49:30;4.77;;;4.30;;
4290;SDS011;2159;50.906;7.152;2022-09-13T00:52:00;4.63;;;4.23;;
4290;SDS011;2159;50.906;7.152;2022-09-13T00:54:31;5.10;;;4.60;;
4290;SDS011;2159;50.906;7.152;2022-09-13T00:57:00;6.77;;;4.27;;
4290;SDS011;2159;50.906;7.152;2022-09-13T00:59:31;6.13;;;4.27;;
4290;SDS011;2159;50.906;7.152;2022-09-13T01:01:59;5.90;;;4.20;;
4290;SDS011;2159;50.906;7.152;2022-09-13T01:04:28;4.47;;;4.07;;
4290;SDS011;2159;50.906;7.152;2022-09-13T01:06:58;4.60;;;4.20;;
4290;SDS011;2159;50.906;7.152;2022-09-13T01:09:27;4.43;;;4.03;;
4290;SDS011;2159;50.906;7.152;2022-09-13T01:11:58;6.80;;;4.13;;
4290;SDS011;2159;50.906;7.152;2022-09-13T01:14:29;7.37;;;4.37;;
4290;SDS011;2159;50.906;7.152;2022-09-13T01:16:57;4.60;;;4.20;;
4290;SDS011;2159;50.906;7.152;2022-09-13T01:19:24;5.13;;;4.17;;
4290;SDS011;2159;50.906;7.152;2022-09-13T01:22:00;6.13;;;4.50;;
4290;SDS011;2159;50.906;7.152;2022-09-13T01:24:53;6.40;;;4.37;;
4290;SDS011;2159;50.906;7.152;2022-09-13T01:27:28;4.83;;;4.00;;
4290;SDS011;2159;50.906;7.152;2022-09-13T01:30:13;4.73;;;4.00;;
4290;SDS011;2159;50.906;7.152;2022-09-13T01:35:34;6.53;;;4.03;;
4290;SDS011;2159;50.906;7.152;2022-09-13T01:38:08;6.73;;;4.23;;
4290;SDS011;2159;50.906;7.152;2022-09-13T01:40:45;9.53;;;3.80;;
4290;SDS011;2159;50.906;7.152;2022-09-13T01:43:19;5.30;;;4.00;;
4290;SDS011;2159;50.906;7.152;2022-09-13T01:45:52;5.07;;;3.90;;
4290;SDS011;2159;50.906;7.152;2022-09-13T01:48:23;4.43;;;3.87;;
4290;SDS011;2159;50.906;7.152;2022-09-13T01:50:56;5.30;;;4.10;;
4290;SDS011;2159;50.906;7.152;2022-09-13T01:53:29;5.73;;;4.07;;
4290;SDS011;2159;50.906;7.152;2022-09-13T01:55:59;4.40;;;4.03;;
4290;SDS011;2159;50.906;7.152;2022-09-13T01:58:30;6.90;;;4.30;;
4290;SDS011;2159;50.906;7.152;2022-09-13T02:01:05;6.60;;;3.80;;
4290;SDS011;2159;50.906;7.152;2022-09-13T02:03:35;4.43;;;3.80;;
4290;SDS011;2159;50.906;7.152;2022-09-13T02:06:05;6.00;;;4.10;;
4290;SDS011;2159;50.906;7.152;2022-09-13T02:08:34;4.70;;;3.73;;
4290;SDS011;2159;50.906;7.152;2022-09-13T02:11:05;8.90;;;4.00;;
4290;SDS011;2159;50.906;7.152;2022-09-13T02:13:35;4.17;;;3.60;;
4290;SDS011;2159;50.906;7.152;2022-09-13T02:16:06;6.87;;;4.10;;
4290;SDS011;2159;50.906;7.152;2022-09-13T02:18:36;8.13;;;4.20;;
4290;SDS011;2159;50.906;7.152;2022-09-13T02:21:06;4.27;;;3.80;;
4290;SDS011;2159;50.906;7.152;2022-09-13T02:23:37;4.17;;;3.57;;
4290;SDS011;2159;50.906;7.152;2022-09-13T02:26:05;4.23;;;3.83;;
4290;SDS011;2159;50.906;7.152;2022-09-13T02:28:34;6.43;;;4.27;;
4290;SDS011;2159;50.906;7.152;2022-09-13T02:31:02;5.30;;;3.93;;
4290;SDS011;2159;50.906;7.152;2022-09-13T02:33:33;4.37;;;3.93;;
4290;SDS011;2159;50.906;7.152;2022-09-13T02:36:01;4.00;;;3.70;;
4290;SDS011;2159;50.906;7.152;2022-09-13T02:38:30;4.23;;;3.83;;
4290;SDS011;2159;50.906;7.152;2022-09-13T02:40:59;5.03;;;3.83;;
4290;SDS011;2159;50.906;7.152;2022-09-13T02:43:30;4.87;;;3.97;;
4290;SDS011;2159;50.906;7.152;2022-09-13T02:46:04;5.93;;;3.80;;
4290;SDS011;2159;50.906;7.152;2022-09-13T02:48:38;5.13;;;4.00;;
4290;SDS011;2159;50.906;7.152;2022-09-13T02:51:11;4.17;;;3.87;;
4290;SDS011;2159;50.906;7.152;2022-09-13T02:53:42;7.63;;;3.80;;
4290;SDS011;2159;50.906;7.152;2022-09-13T02:56:19;4.20;;;3.80;;
4290;SDS011;2159;50.906;7.152;2022-09-13T02:58:49;4.90;;;4.00;;
4290;SDS011;2159;50.906;7.152;2022-09-13T03:01:18;4.43;;;4.03;;
4290;SDS011;2159;50.906;7.152;2022-09-13T03:03:48;5.07;;;3.87;;
4290;SDS011;2159;50.906;7.152;2022-09-13T03:06:20;4.37;;;3.57;;
4290;SDS011;2159;50.906;7.152;2022-09-13T03:08:48;4.80;;;4.30;;
4290;SDS011;2159;50.906;7.152;2022-09-13T03:11:18;5.43;;;3.67;;
4290;SDS011;2159;50.906;7.152;2022-09-13T03:13:54;7.10;;;3.90;;
4290;SDS011;2159;50.906;7.152;2022-09-13T03:16:29;5.20;;;3.97;;
4290;SDS011;2159;50.906;7.152;2022-09-13T03:19:05;9.53;;;4.40;;
4290;SDS011;2159;50.906;7.152;2022-09-13T03:21:42;3.90;;;3.60;;
4290;SDS011;2159;50.906;7.152;2022-09-13T03:24:16;5.30;;;3.67;;
4290;SDS011;2159;50.906;7.152;2022-09-13T03:26:44;3.80;;;3.50;;
4290;SDS011;2159;50.906;7.152;2022-09-13T03:29:22;4.57;;;4.17;;
4290;SDS011;2159;50.906;7.152;2022-09-13T03:31:51;4.50;;;4.00;;
4290;SDS011;2159;50.906;7.152;2022-09-13T03:34:24;4.33;;;3.87;;
4290;SDS011;2159;50.906;7.152;2022-09-13T03:36:54;3.87;;;3.53;;
4290;SDS011;2159;50.906;7.152;2022-09-13T03:39:23;8.77;;;3.80;;
4290;SDS011;2159;50.906;7.152;2022-09-13T03:41:54;4.13;;;3.70;;
4290;SDS011;2159;50.906;7.152;2022-09-13T03:44:24;5.53;;;3.60;;
4290;SDS011;2159;50.906;7.152;2022-09-13T03:46:53;5.13;;;3.70;;
4290;SDS011;2159;50.906;7.152;2022-09-13T03:49:24;6.43;;;3.80;;
4290;SDS011;2159;50.906;7.152;2022-09-13T03:51:52;4.33;;;3.83;;
4290;SDS011;2159;50.906;7.152;2022-09-13T03:54:20;6.50;;;3.93;;
4290;SDS011;2159;50.906;7.152;2022-09-13T03:57:04;4.00;;;3.60;;
4290;SDS011;2159;50.906;7.152;2022-09-13T03:59:32;4.03;;;3.43;;
4290;SDS011;2159;50.906;7.152;2022-09-13T04:02:00;5.03;;;3.77;;
4290;SDS011;2159;50.906;7.152;2022-09-13T04:04:29;5.47;;;3.40;;
4290;SDS011;2159;50.906;7.152;2022-09-13T04:06:56;3.93;;;3.60;;
4290;SDS011;2159;50.906;7.152;2022-09-13T04:09:26;6.87;;;3.70;;
4290;SDS011;2159;50.906;7.152;2022-09-13T04:11:54;3.80;;;3.50;;
4290;SDS011;2159;50.906;7.152;2022-09-13T04:14:21;4.07;;;3.67;;
4290;SDS011;2159;50.906;7.152;2022-09-13T04:16:51;4.03;;;3.70;;
4290;SDS011;2159;50.906;7.152;2022-09-13T04:19:20;3.57;;;3.30;;
4290;SDS011;2159;50.906;7.152;2022-09-13T04:21:49;7.97;;;3.83;;
4290;SDS011;2159;50.906;7.152;2022-09-13T04:24:17;4.97;;;3.80;;
4290;SDS011;2159;50.906;7.152;2022-09-13T04:26:47;4.07;;;3.67;;
4290;SDS011;2159;50.906;7.152;2022-09-13T04:29:15;5.60;;;3.53;;
4290;SDS011;2159;50.906;7.152;2022-09-13T04:31:43;4.13;;;3.70;;
4290;SDS011;2159;50.906;7.152;2022-09-13T04:34:11;5.30;;;3.43;;
4290;SDS011;2159;50.906;7.152;2022-09-13T04:36:39;4.20;;;3.90;;
4290;SDS011;2159;50.906;7.152;2022-09-13T04:39:08;5.40;;;4.10;;
4290;SDS011;2159;50.906;7.152;2022-09-13T04:41:35;4.03;;;3.73;;
4290;SDS011;2159;50.906;7.152;2022-09-13T04:44:02;4.30;;;3.90;;
4290;SDS011;2159;50.906;7.152;2022-09-13T04:46:30;4.87;;;4.50;;
4290;SDS011;2159;50.906;7.152;2022-09-13T04:48:57;5.70;;;4.10;;
4290;SDS011;2159;50.906;7.152;2022-09-13T04:51:24;4.37;;;3.97;;
4290;SDS011;2159;50.906;7.152;2022-09-13T04:53:52;4.30;;;4.00;;
4290;SDS011;2159;50.906;7.152;2022-09-13T04:56:22;6.67;;;4.00;;
4290;SDS011;2159;50.906;7.152;2022-09-13T04:58:50;4.40;;;4.00;;
4290;SDS011;2159;50.906;7.152;2022-09-13T05:01:17;11.73;;;4.17;;
4290;SDS011;2159;50.906;7.152;2022-09-13T05:03:47;7.10;;;4.10;;
4290;SDS011;2159;50.906;7.152;2022-09-13T05:06:15;4.10;;;3.80;;
4290;SDS011;2159;50.906;7.152;2022-09-13T05:08:43;11.03;;;4.30;;
4290;SDS011;2159;50.906;7.152;2022-09-13T05:11:10;15.23;;;4.00;;
4290;SDS011;2159;50.906;7.152;2022-09-13T05:13:39;4.40;;;3.80;;
4290;SDS011;2159;50.906;7.152;2022-09-13T05:16:07;4.60;;;4.00;;
4290;SDS011;2159;50.906;7.152;2022-09-13T05:18:35;4.50;;;4.10;;
4290;SDS011;2159;50.906;7.152;2022-09-13T05:21:08;4.10;;;3.67;;
4290;SDS011;2159;50.906;7.152;2022-09-13T05:23:35;3.80;;;3.50;;
4290;SDS011;2159;50.906;7.152;2022-09-13T05:26:04;6.23;;;3.80;;
4290;SDS011;2159;50.906;7.152;2022-09-13T05:28:32;3.50;;;3.30;;
4290;SDS011;2159;50.906;7.152;2022-09-13T05:31:02;6.60;;;3.70;;
4290;SDS011;2159;50.906;7.152;2022-09-13T05:33:31;5.40;;;3.80;;
4290;SDS011;2159;50.906;7.152;2022-09-13T05:35:58;4.73;;;4.33;;
4290;SDS011;2159;50.906;7.152;2022-09-13T05:38:26;4.00;;;3.67;;
4290;SDS011;2159;50.906;7.152;2022-09-13T05:40:54;6.53;;;3.97;;
4290;SDS011;2159;50.906;7.152;2022-09-13T05:43:22;3.70;;;3.50;;
4290;SDS011;2159;50.906;7.152;2022-09-13T05:45:58;4.10;;;3.67;;
4290;SDS011;2159;50.906;7.152;2022-09-13T05:48:27;5.30;;;3.90;;
4290;SDS011;2159;50.906;7.152;2022-09-13T05:50:55;4.80;;;4.10;;
4290;SDS011;2159;50.906;7.152;2022-09-13T05:53:24;3.93;;;3.63;;
4290;SDS011;2159;50.906;7.152;2022-09-13T05:55:51;4.53;;;3.70;;
4290;SDS011;2159;50.906;7.152;2022-09-13T05:58:19;4.10;;;3.80;;
4290;SDS011;2159;50.906;7.152;2022-09-13T06:00:51;4.97;;;3.87;;
4290;SDS011;2159;50.906;7.152;2022-09-13T06:03:19;15.83;;;4.00;;
4290;SDS011;2159;50.906;7.152;2022-09-13T06:05:47;6.60;;;3.97;;
4290;SDS011;2159;50.906;7.152;2022-09-13T06:08:15;4.73;;;3.50;;
4290;SDS011;2159;50.906;7.152;2022-09-13T06:10:43;4.40;;;4.00;;
4290;SDS011;2159;50.906;7.152;2022-09-13T06:13:10;3.97;;;3.77;;
4290;SDS011;2159;50.906;7.152;2022-09-13T06:15:38;3.93;;;3.63;;
4290;SDS011;2159;50.906;7.152;2022-09-13T06:18:08;9.50;;;4.20;;
4290;SDS011;2159;50.906;7.152;2022-09-13T06:20:36;3.73;;;3.53;;
4290;SDS011;2159;50.906;7.152;2022-09-13T06:23:04;3.93;;;3.70;;
4290;SDS011;2159;50.906;7.152;2022-09-13T06:25:32;3.80;;;3.47;;
4290;SDS011;2159;50.906;7.152;2022-09-13T06:27:59;6.07;;;3.70;;
4290;SDS011;2159;50.906;7.152;2022-09-13T06:30:27;9.20;;;4.10;;
4290;SDS011;2159;50.906;7.152;2022-09-13T06:32:54;3.93;;;3.63;;
4290;SDS011;2159;50.906;7.152;2022-09-13T06:35:22;6.80;;;3.90;;
4290;SDS011;2159;50.906;7.152;2022-09-13T06:37:49;4.00;;;3.70;;
4290;SDS011;2159;50.906;7.152;2022-09-13T06:40:18;6.00;;;4.37;;
4290;SDS011;2159;50.906;7.152;2022-09-13T06:42:50;5.37;;;4.03;;
4290;SDS011;2159;50.906;7.152;2022-09-13T06:45:18;4.57;;;3.97;;
4290;SDS011;2159;50.906;7.152;2022-09-13T06:47:45;4.10;;;3.80;;
4290;SDS011;2159;50.906;7.152;2022-09-13T06:50:12;4.40;;;3.83;;
4290;SDS011;2159;50.906;7.152;2022-09-13T06:52:40;4.40;;;3.87;;
4290;SDS011;2159;50.906;7.152;2022-09-13T06:55:08;3.60;;;3.40;;
4290;SDS011;2159;50.906;7.152;2022-09-13T06:57:39;4.10;;;3.80;;
4290;SDS011;2159;50.906;7.152;2022-09-13T07:00:07;4.23;;;3.90;;
4290;SDS011;2159;50.906;7.152;2022-09-13T07:02:34;4.57;;;3.77;;
4290;SDS011;2159;50.906;7.152;2022-09-13T07:05:02;4.10;;;3.80;;
4290;SDS011;2159;50.906;7.152;2022-09-13T07:07:29;3.80;;;3.50;;
4290;SDS011;2159;50.906;7.152;2022-09-13T07:09:57;4.53;;;3.97;;
4290;SDS011;2159;50.906;7.152;2022-09-13T07:12:26;5.80;;;3.70;;
4290;SDS011;2159;50.906;7.152;2022-09-13T07:14:54;4.10;;;3.77;;
4290;SDS011;2159;50.906;7.152;2022-09-13T07:17:22;5.20;;;4.00;;
4290;SDS011;2159;50.906;7.152;2022-09-13T07:19:52;4.00;;;3.70;;
4290;SDS011;2159;50.906;7.152;2022-09-13T07:22:20;4.90;;;3.47;;
4290;SDS011;2159;50.906;7.152;2022-09-13T07:24:52;5.00;;;3.70;;
4290;SDS011;2159;50.906;7.152;2022-09-13T07:27:19;3.67;;;3.40;;
4290;SDS011;2159;50.906;7.152;2022-09-13T07:29:47;4.17;;;3.77;;
4290;SDS011;2159;50.906;7.152;2022-09-13T07:32:15;5.83;;;3.50;;
4290;SDS011;2159;50.906;7.152;2022-09-13T07:34:43;9.63;;;3.47;;
4290;SDS011;2159;50.906;7.152;2022-09-13T07:37:10;5.63;;;3.60;;
4290;SDS011;2159;50.906;7.152;2022-09-13T07:39:38;3.60;;;3.20;;
4290;SDS011;2159;50.906;7.152;2022-09-13T07:42:05;4.47;;;3.50;;
4290;SDS011;2159;50.906;7.152;2022-09-13T07:44:32;5.50;;;3.70;;
4290;SDS011;2159;50.906;7.152;2022-09-13T07:47:00;5.17;;;3.57;;
4290;SDS011;2159;50.906;7.152;2022-09-13T07:49:29;3.93;;;3.50;;
4290;SDS011;2159;50.906;7.152;2022-09-13T07:51:56;3.43;;;3.20;;
4290;SDS011;2159;50.906;7.152;2022-09-13T07:54:24;3.43;;;3.10;;
4290;SDS011;2159;50.906;7.152;2022-09-13T07:56:51;7.03;;;3.40;;
4290;SDS011;2159;50.906;7.152;2022-09-13T07:59:18;6.20;;;3.60;;
4290;SDS011;2159;50.906;7.152;2022-09-13T08:01:46;3.47;;;3.10;;
4290;SDS011;2159;50.906;7.152;2022-09-13T08:04:15;4.90;;;3.50;;
4290;SDS011;2159;50.906;7.152;2022-09-13T08:06:45;3.73;;;3.37;;
4290;SDS011;2159;50.906;7.152;2022-09-13T08:09:13;3.20;;;3.00;;
4290;SDS011;2159;50.906;7.152;2022-09-13T08:11:41;3.60;;;3.30;;
4290;SDS011;2159;50.906;7.152;2022-09-13T08:14:09;3.00;;;2.80;;
4290;SDS011;2159;50.906;7.152;2022-09-13T08:16:37;6.43;;;2.93;;
4290;SDS011;2159;50.906;7.152;2022-09-13T08:19:05;4.87;;;3.13;;
4290;SDS011;2159;50.906;7.152;2022-09-13T08:21:34;3.80;;;3.50;;
4290;SDS011;2159;50.906;7.152;2022-09-13T08:24:03;3.53;;;3.33;;
4290;SDS011;2159;50.906;7.152;2022-09-13T08:26:31;3.37;;;3.17;;
4290;SDS011;2159;50.906;7.152;2022-09-13T08:29:00;3.33;;;3.13;;
4290;SDS011;2159;50.906;7.152;2022-09-13T08:31:28;3.50;;;3.20;;
4290;SDS011;2159;50.906;7.152;2022-09-13T08:33:55;4.73;;;3.33;;
4290;SDS011;2159;50.906;7.152;2022-09-13T08:36:23;5.97;;;3.30;;
4290;SDS011;2159;50.906;7.152;2022-09-13T08:38:51;3.00;;;2.90;;
4290;SDS011;2159;50.906;7.152;2022-09-13T08:41:26;3.63;;;3.33;;
4290;SDS011;2159;50.906;7.152;2022-09-13T08:43:56;3.47;;;3.27;;
4290;SDS011;2159;50.906;7.152;2022-09-13T08:46:24;5.80;;;3.60;;
4290;SDS011;2159;50.906;7.152;2022-09-13T08:48:54;5.20;;;3.77;;
4290;SDS011;2159;50.906;7.152;2022-09-13T08:51:26;3.73;;;3.43;;
4290;SDS011;2159;50.906;7.152;2022-09-13T08:53:55;3.70;;;3.40;;
4290;SDS011;2159;50.906;7.152;2022-09-13T08:56:25;5.10;;;3.30;;
4290;SDS011;2159;50.906;7.152;2022-09-13T08:59:02;4.20;;;3.43;;
4290;SDS011;2159;50.906;7.152;2022-09-13T09:01:35;3.60;;;3.30;;
4290;SDS011;2159;50.906;7.152;2022-09-13T09:04:06;3.33;;;3.00;;
4290;SDS011;2159;50.906;7.152;2022-09-13T09:06:37;3.53;;;3.23;;
4290;SDS011;2159;50.906;7.152;2022-09-13T09:09:05;4.07;;;3.20;;
4290;SDS011;2159;50.906;7.152;2022-09-13T09:11:36;3.93;;;3.30;;
4290;SDS011;2159;50.906;7.152;2022-09-13T09:14:10;3.10;;;2.90;;
4290;SDS011;2159;50.906;7.152;2022-09-13T09:16:42;3.10;;;2.90;;
4290;SDS011;2159;50.906;7.152;2022-09-13T09:19:15;4.93;;;2.77;;
4290;SDS011;2159;50.906;7.152;2022-09-13T09:21:45;2.57;;;2.47;;
4290;SDS011;2159;50.906;7.152;2022-09-13T09:24:15;12.43;;;3.40;;
4290;SDS011;2159;50.906;7.152;2022-09-13T09:26:45;3.50;;;2.87;;
4290;SDS011;2159;50.906;7.152;2022-09-13T09:29:15;2.47;;;2.13;;
4290;SDS011;2159;50.906;7.152;2022-09-13T09:31:52;4.53;;;2.40;;
4290;SDS011;2159;50.906;7.152;2022-09-13T09:34:24;2.50;;;2.30;;
4290;SDS011;2159;50.906;7.152;2022-09-13T09:36:55;3.63;;;2.57;;
4290;SDS011;2159;50.906;7.152;2022-09-13T09:39:26;2.93;;;2.50;;
4290;SDS011;2159;50.906;7.152;2022-09-13T09:41:59;3.20;;;2.47;;
4290;SDS011;2159;50.906;7.152;2022-09-13T09:44:29;2.60;;;2.40;;
4290;SDS011;2159;50.906;7.152;2022-09-13T09:46:59;4.83;;;2.07;;
4290;SDS011;2159;50.906;7.152;2022-09-13T09:49:30;8.20;;;2.53;;
4290;SDS011;2159;50.906;7.152;2022-09-13T09:52:17;2.37;;;2.27;;
4290;SDS011;2159;50.906;7.152;2022-09-13T09:54:47;2.40;;;2.20;;
4290;SDS011;2159;50.906;7.152;2022-09-13T09:57:17;2.87;;;2.40;;
4290;SDS011;2159;50.906;7.152;2022-09-13T09:59:45;5.23;;;2.53;;
4290;SDS011;2159;50.906;7.152;2022-09-13T10:02:14;5.43;;;2.60;;
4290;SDS011;2159;50.906;7.152;2022-09-13T10:04:42;4.27;;;2.37;;
4290;SDS011;2159;50.906;7.152;2022-09-13T10:07:22;2.70;;;2.50;;
4290;SDS011;2159;50.906;7.152;2022-09-13T10:09:54;4.60;;;2.40;;
4290;SDS011;2159;50.906;7.152;2022-09-13T10:12:26;4.10;;;2.30;;
4290;SDS011;2159;50.906;7.152;2022-09-13T10:14:55;2.60;;;2.40;;
4290;SDS011;2159;50.906;7.152;2022-09-13T10:17:29;8.73;;;2.60;;
4290;SDS011;2159;50.906;7.152;2022-09-13T10:19:57;2.13;;;2.03;;
4290;SDS011;2159;50.906;7.152;2022-09-13T10:22:27;11.00;;;2.37;;
4290;SDS011;2159;50.906;7.152;2022-09-13T10:24:54;6.93;;;2.60;;
4290;SDS011;2159;50.906;7.152;2022-09-13T10:27:24;2.97;;;2.40;;
4290;SDS011;2159;50.906;7.152;2022-09-13T10:29:54;11.43;;;2.73;;
4290;SDS011;2159;50.906;7.152;2022-09-13T10:32:25;4.77;;;2.30;;
4290;SDS011;2159;50.906;7.152;2022-09-13T10:34:52;2.30;;;2.10;;
4290;SDS011;2159;50.906;7.152;2022-09-13T10:37:23;4.30;;;2.40;;
4290;SDS011;2159;50.906;7.152;2022-09-13T10:39:58;4.57;;;2.40;;
4290;SDS011;2159;50.906;7.152;2022-09-13T10:42:27;2.57;;;2.10;;
4290;SDS011;2159;50.906;7.152;2022-09-13T10:44:57;2.30;;;2.10;;
4290;SDS011;2159;50.906;7.152;2022-09-13T10:47:26;2.30;;;2.10;;
4290;SDS011;2159;50.906;7.152;2022-09-13T10:49:56;5.93;;;2.67;;
4290;SDS011;2159;50.906;7.152;2022-09-13T10:52:26;7.80;;;3.40;;
4290;SDS011;2159;50.906;7.152;2022-09-13T10:54:54;21.17;;;5.30;;
4290;SDS011;2159;50.906;7.152;2022-09-13T10:57:28;17.97;;;4.07;;
4290;SDS011;2159;50.906;7.152;2022-09-13T10:59:59;10.30;;;3.93;;
4290;SDS011;2159;50.906;7.152;2022-09-13T11:02:30;10.40;;;3.30;;
4290;SDS011;2159;50.906;7.152;2022-09-13T11:05:12;3.53;;;2.60;;
4290;SDS011;2159;50.906;7.152;2022-09-13T11:07:47;7.40;;;3.20;;
4290;SDS011;2159;50.906;7.152;2022-09-13T11:10:18;24.07;;;3.87;;
4290;SDS011;2159;50.906;7.152;2022-09-13T11:12:49;8.03;;;3.10;;
4290;SDS011;2159;50.906;7.152;2022-09-13T11:15:24;10.50;;;3.60;;
4290;SDS011;2159;50.906;7.152;2022-09-13T11:18:07;45.53;;;7.33;;
4290;SDS011;2159;50.906;7.152;2022-09-13T11:20:38;5.90;;;2.90;;
4290;SDS011;2159;50.906;7.152;2022-09-13T11:25:57;11.17;;;2.80;;
4290;SDS011;2159;50.906;7.152;2022-09-13T11:28:28;3.40;;;2.60;;
4290;SDS011;2159;50.906;7.152;2022-09-13T11:31:05;2.63;;;2.40;;
4290;SDS011;2159;50.906;7.152;2022-09-13T11:33:39;6.73;;;2.67;;
4290;SDS011;2159;50.906;7.152;2022-09-13T11:36:11;3.23;;;2.37;;
4290;SDS011;2159;50.906;7.152;2022-09-13T11:38:44;2.53;;;2.33;;
4290;SDS011;2159;50.906;7.152;2022-09-13T11:41:17;4.50;;;2.30;;
4290;SDS011;2159;50.906;7.152;2022-09-13T11:43:53;37.00;;;5.23;;
4290;SDS011;2159;50.906;7.152;2022-09-13T11:46:26;3.33;;;2.67;;
4290;SDS011;2159;50.906;7.152;2022-09-13T11:49:05;3.13;;;2.50;;
4290;SDS011;2159;50.906;7.152;2022-09-13T11:51:39;2.73;;;2.50;;
4290;SDS011;2159;50.906;7.152;2022-09-13T11:54:14;7.93;;;3.00;;
4290;SDS011;2159;50.906;7.152;2022-09-13T11:56:46;4.87;;;2.70;;
4290;SDS011;2159;50.906;7.152;2022-09-13T11:59:17;4.67;;;2.60;;
4290;SDS011;2159;50.906;7.152;2022-09-13T12:01:48;3.33;;;2.43;;
4290;SDS011;2159;50.906;7.152;2022-09-13T12:04:17;3.73;;;2.43;;
4290;SDS011;2159;50.906;7.152;2022-09-13T12:06:45;9.53;;;2.40;;
4290;SDS011;2159;50.906;7.152;2022-09-13T12:09:15;3.53;;;2.50;;
4290;SDS011;2159;50.906;7.152;2022-09-13T12:11:46;5.70;;;2.60;;
4290;SDS011;2159;50.906;7.152;2022-09-13T12:14:16;4.03;;;2.33;;
4290;SDS011;2159;50.906;7.152;2022-09-13T12:16:44;7.00;;;3.10;;
4290;SDS011;2159;50.906;7.152;2022-09-13T12:19:16;3.33;;;2.90;;
4290;SDS011;2159;50.906;7.152;2022-09-13T12:21:44;4.20;;;2.93;;
4290;SDS011;2159;50.906;7.152;2022-09-13T12:24:14;3.17;;;2.73;;
4290;SDS011;2159;50.906;7.152;2022-09-13T12:26:44;2.83;;;2.50;;
4290;SDS011;2159;50.906;7.152;2022-09-13T12:29:13;8.93;;;3.30;;
4290;SDS011;2159;50.906;7.152;2022-09-13T12:31:41;7.47;;;2.50;;
4290;SDS011;2159;50.906;7.152;2022-09-13T12:34:10;4.60;;;2.53;;
4290;SDS011;2159;50.906;7.152;2022-09-13T12:36:54;2.90;;;2.63;;
4290;SDS011;2159;50.906;7.152;2022-09-13T12:39:35;4.97;;;2.63;;
4290;SDS011;2159;50.906;7.152;2022-09-13T12:44:56;2.50;;;2.30;;
4290;SDS011;2159;50.906;7.152;2022-09-13T12:47:37;2.40;;;2.23;;
4290;SDS011;2159;50.906;7.152;2022-09-13T12:50:14;2.40;;;2.17;;
4290;SDS011;2159;50.906;7.152;2022-09-13T12:53:08;1.97;;;1.87;;
4290;SDS011;2159;50.906;7.152;2022-09-13T12:55:43;2.60;;;2.00;;
4290;SDS011;2159;50.906;7.152;2022-09-13T12:58:21;2.50;;;2.20;;
4290;SDS011;2159;50.906;7.152;2022-09-13T13:01:00;3.27;;;2.10;;
4290;SDS011;2159;50.906;7.152;2022-09-13T13:03:31;2.80;;;2.40;;
4290;SDS011;2159;50.906;7.152;2022-09-13T13:06:08;2.40;;;2.20;;
4290;SDS011;2159;50.906;7.152;2022-09-13T13:08:38;3.20;;;1.93;;
4290;SDS011;2159;50.906;7.152;2022-09-13T13:11:06;3.90;;;2.37;;
4290;SDS011;2159;50.906;7.152;2022-09-13T13:13:35;3.53;;;2.17;;
4290;SDS011;2159;50.906;7.152;2022-09-13T13:16:04;2.40;;;2.20;;
4290;SDS011;2159;50.906;7.152;2022-09-13T13:18:42;3.27;;;2.00;;
4290;SDS011;2159;50.906;7.152;2022-09-13T13:26:46;3.53;;;2.33;;
4290;SDS011;2159;50.906;7.152;2022-09-13T13:29:15;2.73;;;2.30;;
4290;SDS011;2159;50.906;7.152;2022-09-13T13:31:43;2.50;;;2.27;;
4290;SDS011;2159;50.906;7.152;2022-09-13T13:36:59;1.80;;;1.70;;
4290;SDS011;2159;50.906;7.152;2022-09-13T13:39:34;2.30;;;1.87;;
4290;SDS011;2159;50.906;7.152;2022-09-13T13:42:10;1.80;;;1.70;;
4290;SDS011;2159;50.906;7.152;2022-09-13T13:50:29;5.47;;;2.17;;
4290;SDS011;2159;50.906;7.152;2022-09-13T13:53:16;3.00;;;1.93;;
4290;SDS011;2159;50.906;7.152;2022-09-13T13:55:45;2.03;;;1.93;;
4290;SDS011;2159;50.906;7.152;2022-09-13T13:58:23;2.20;;;2.00;;
4290;SDS011;2159;50.906;7.152;2022-09-13T14:00:53;2.20;;;2.00;;
4290;SDS011;2159;50.906;7.152;2022-09-13T14:03:22;2.87;;;2.00;;
4290;SDS011;2159;50.906;7.152;2022-09-13T14:05:53;3.57;;;1.90;;
4290;SDS011;2159;50.906;7.152;2022-09-13T14:08:30;2.40;;;1.77;;
4290;SDS011;2159;50.906;7.152;2022-09-13T14:11:00;2.20;;;2.00;;
4290;SDS011;2159;50.906;7.152;2022-09-13T14:13:35;2.60;;;1.73;;
4290;SDS011;2159;50.906;7.152;2022-09-13T14:16:06;3.10;;;1.90;;
4290;SDS011;2159;50.906;7.152;2022-09-13T14:18:48;4.73;;;2.50;;
4290;SDS011;2159;50.906;7.152;2022-09-13T14:21:17;4.10;;;2.00;;
4290;SDS011;2159;50.906;7.152;2022-09-13T14:23:45;1.77;;;1.67;;
4290;SDS011;2159;50.906;7.152;2022-09-13T14:26:13;2.23;;;1.93;;
4290;SDS011;2159;50.906;7.152;2022-09-13T14:28:42;2.30;;;2.07;;
4290;SDS011;2159;50.906;7.152;2022-09-13T14:31:13;2.90;;;1.90;;
4290;SDS011;2159;50.906;7.152;2022-09-13T14:33:42;2.60;;;2.40;;
4290;SDS011;2159;50.906;7.152;2022-09-13T14:36:15;2.33;;;2.13;;
4290;SDS011;2159;50.906;7.152;2022-09-13T14:38:46;3.27;;;2.20;;
4290;SDS011;2159;50.906;7.152;2022-09-13T14:41:21;3.90;;;2.23;;
4290;SDS011;2159;50.906;7.152;2022-09-13T14:43:50;2.90;;;2.07;;
4290;SDS011;2159;50.906;7.152;2022-09-13T14:46:20;1.90;;;1.80;;
4290;SDS011;2159;50.906;7.152;2022-09-13T14:48:49;2.20;;;1.87;;
4290;SDS011;2159;50.906;7.152;2022-09-13T14:51:19;3.30;;;1.90;;
4290;SDS011;2159;50.906;7.152;2022-09-13T14:53:48;9.47;;;1.87;;
4290;SDS011;2159;50.906;7.152;2022-09-13T14:56:18;2.40;;;1.90;;
4290;SDS011;2159;50.906;7.152;2022-09-13T14:58:47;2.93;;;2.10;;
4290;SDS011;2159;50.906;7.152;2022-09-13T15:01:17;2.70;;;1.70;;
4290;SDS011;2159;50.906;7.152;2022-09-13T15:03:46;2.50;;;1.83;;
4290;SDS011;2159;50.906;7.152;2022-09-13T15:06:21;2.23;;;2.10;;
4290;SDS011;2159;50.906;7.152;2022-09-13T15:08:50;1.80;;;1.70;;
4290;SDS011;2159;50.906;7.152;2022-09-13T15:11:31;3.73;;;2.10;;
4290;SDS011;2159;50.906;7.152;2022-09-13T15:14:00;4.30;;;1.60;;
4290;SDS011;2159;50.906;7.152;2022-09-13T15:16:29;2.20;;;1.80;;
4290;SDS011;2159;50.906;7.152;2022-09-13T15:19:16;3.27;;;1.70;;
4290;SDS011;2159;50.906;7.152;2022-09-13T15:21:53;2.80;;;1.60;;
4290;SDS011;2159;50.906;7.152;2022-09-13T15:24:28;2.67;;;1.87;;
4290;SDS011;2159;50.906;7.152;2022-09-13T15:27:00;2.10;;;2.00;;
4290;SDS011;2159;50.906;7.152;2022-09-13T15:29:28;3.90;;;2.00;;
4290;SDS011;2159;50.906;7.152;2022-09-13T15:32:01;2.17;;;1.80;;
4290;SDS011;2159;50.906;7.152;2022-09-13T15:34:28;4.30;;;1.80;;
4290;SDS011;2159;50.906;7.152;2022-09-13T15:37:09;4.53;;;2.00;;
4290;SDS011;2159;50.906;7.152;2022-09-13T15:39:43;3.50;;;1.80;;
4290;SDS011;2159;50.906;7.152;2022-09-13T15:42:13;2.83;;;2.17;;
4290;SDS011;2159;50.906;7.152;2022-09-13T15:44:41;4.33;;;2.03;;
4290;SDS011;2159;50.906;7.152;2022-09-13T15:47:10;3.93;;;2.03;;
4290;SDS011;2159;50.906;7.152;2022-09-13T15:49:40;3.53;;;1.83;;
4290;SDS011;2159;50.906;7.152;2022-09-13T15:52:12;2.40;;;2.03;;
4290;SDS011;2159;50.906;7.152;2022-09-13T15:54:41;9.70;;;2.23;;
4290;SDS011;2159;50.906;7.152;2022-09-13T15:57:11;2.70;;;1.87;;
4290;SDS011;2159;50.906;7.152;2022-09-13T15:59:40;3.40;;;2.23;;
4290;SDS011;2159;50.906;7.152;2022-09-13T16:02:16;6.70;;;1.90;;